Time;durP1;ratioP1;P1;durP2;ratioP2;P2;SDS_P1;SDS_P2;PMS_P1;PMS_P2;Temp;Humidity;BMP_temperature;BMP_pressure;BME280_temperature;BME280_humidity;BME280_pressure;Samples;Min_cycle;Max_cycle;Signal;HPM_P1;HPM_P2
2023/02/07 00:02:08;;;;;;;5.38;4.22;;;;;;;;;;10367720;28;20029;-66
2023/02/07 00:07:09;;;;;;;6.95;4.10;;;;;;;;;;10367334;28;20045;-66
2023/02/07 00:12:09;;;;;;;5.43;3.95;;;;;;;;;;10367260;28;20033;-63
2023/02/07 00:17:10;;;;;;;5.70;4.07;;;;;;;;;;10367290;28;20044;-63
2023/02/07 00:22:10;;;;;;;8.73;4.20;;;;;;;;;;10367113;28;20137;-63
2023/02/07 00:27:11;;;;;;;5.35;4.22;;;;;;;;;;10366920;28;20030;-63
2023/02/07 00:32:12;;;;;;;6.07;4.18;;;;;;;;;;10367144;28;20037;-63
2023/02/07 00:37:12;;;;;;;6.57;4.15;;;;;;;;;;10366561;28;20042;-63
2023/02/07 00:42:13;;;;;;;6.63;4.22;;;;;;;;;;10366732;28;20110;-63
2023/02/07 00:47:14;;;;;;;4.30;3.85;;;;;;;;;;10366622;28;20045;-63
2023/02/07 00:52:14;;;;;;;8.55;4.40;;;;;;;;;;10366464;28;20038;-62
2023/02/07 00:57:15;;;;;;;4.90;3.80;;;;;;;;;;10368590;28;20022;-63
2023/02/07 01:02:15;;;;;;;4.72;3.67;;;;;;;;;;10374089;28;20046;-63
2023/02/07 01:07:16;;;;;;;8.05;3.75;;;;;;;;;;10374357;28;20044;-64
2023/02/07 01:12:16;;;;;;;5.78;3.95;;;;;;;;;;10372639;28;20045;-63
2023/02/07 01:17:17;;;;;;;5.38;3.70;;;;;;;;;;10373879;28;20049;-63
2023/02/07 01:22:17;;;;;;;4.70;3.72;;;;;;;;;;10374348;28;20029;-63
2023/02/07 01:27:18;;;;;;;19.52;3.88;;;;;;;;;;10373522;28;20018;-63
2023/02/07 01:32:19;;;;;;;3.85;3.45;;;;;;;;;;10373691;28;20038;-63
2023/02/07 01:37:19;;;;;;;4.07;3.17;;;;;;;;;;10372898;28;20054;-63
2023/02/07 01:42:25;;;;;;;12.27;4.20;;;;;;;;;;10372894;28;20084;-63
2023/02/07 01:47:27;;;;;;;4.65;3.47;;;;;;;;;;10373130;28;20178;-61
2023/02/07 01:52:35;;;;;;;4.70;3.40;;;;;;;;;;10373049;28;20044;-62
2023/02/07 01:57:36;;;;;;;5.18;3.35;;;;;;;;;;10372548;28;20105;-63
2023/02/07 02:02:37;;;;;;;4.85;3.45;;;;;;;;;;10370928;28;20137;-64
2023/02/07 02:07:39;;;;;;;4.22;3.35;;;;;;;;;;10369053;28;20045;-66
2023/02/07 02:13:14;;;;;;;4.43;3.42;;;;;;;;;;10370901;28;20045;-66
2023/02/07 02:18:42;;;;;;;3.67;3.10;;;;;;;;;;10361614;28;20038;-63
2023/02/07 02:23:57;;;;;;;3.83;3.00;;;;;;;;;;10370237;28;20080;-66
2023/02/07 02:29:08;;;;;;;3.65;3.10;;;;;;;;;;10366865;28;20108;-63
2023/02/07 02:34:39;;;;;;;4.20;3.30;;;;;;;;;;10361175;28;20030;-64
2023/02/07 02:39:49;;;;;;;4.32;3.33;;;;;;;;;;10370622;28;20564;-63
2023/02/07 02:45:06;;;;;;;4.25;3.03;;;;;;;;;;10369505;28;20030;-65
2023/02/07 02:50:14;;;;;;;4.82;3.28;;;;;;;;;;10370771;28;20108;-64
2023/02/07 02:55:16;;;;;;;3.60;3.00;;;;;;;;;;10368219;28;20155;-66
2023/02/07 03:00:33;;;;;;;4.38;3.00;;;;;;;;;;10370162;28;20532;-66
2023/02/07 03:06:04;;;;;;;3.90;3.42;;;;;;;;;;10369699;28;20033;-66
2023/02/07 03:11:19;;;;;;;3.60;2.83;;;;;;;;;;10367108;28;20040;-66
2023/02/07 03:16:31;;;;;;;3.25;2.88;;;;;;;;;;10368191;28;20267;-66
2023/02/07 03:21:41;;;;;;;4.60;3.10;;;;;;;;;;10368931;28;20469;-66
2023/02/07 03:26:45;;;;;;;7.00;3.25;;;;;;;;;;10368460;28;20060;-66
2023/02/07 03:31:56;;;;;;;5.97;2.85;;;;;;;;;;10369144;28;20030;-66
2023/02/07 03:37:05;;;;;;;5.50;2.97;;;;;;;;;;10366111;28;20089;-66
2023/02/07 03:42:33;;;;;;;;;;;;;;;;;;10367878;28;20033;-66
2023/02/07 03:47:34;;;;;;;3.17;2.80;;;;;;;;;;10381486;28;19967;-66
2023/02/07 03:52:34;;;;;;;4.95;2.80;;;;;;;;;;10368388;28;20049;-66
2023/02/07 03:57:35;;;;;;;3.83;2.92;;;;;;;;;;10368587;28;20492;-64
2023/02/07 04:02:35;;;;;;;4.55;2.72;;;;;;;;;;10368245;28;20058;-64
2023/02/07 04:07:37;;;;;;;4.03;2.90;;;;;;;;;;10367771;28;20036;-63
2023/02/07 04:12:37;;;;;;;4.35;3.05;;;;;;;;;;10367165;28;20024;-64
2023/02/07 04:17:38;;;;;;;4.28;3.13;;;;;;;;;;10367030;28;20381;-64
2023/02/07 04:22:38;;;;;;;3.10;2.78;;;;;;;;;;10367681;28;20073;-63
2023/02/07 04:27:39;;;;;;;2.97;2.65;;;;;;;;;;10366943;28;20032;-64
2023/02/07 04:32:39;;;;;;;3.83;2.42;;;;;;;;;;10366477;28;20392;-64
2023/02/07 04:37:40;;;;;;;2.60;2.40;;;;;;;;;;10366943;28;20377;-63
2023/02/07 04:42:41;;;;;;;2.85;2.42;;;;;;;;;;10366807;28;20425;-64
2023/02/07 04:47:41;;;;;;;2.60;2.40;;;;;;;;;;10366972;28;20030;-64
2023/02/07 04:52:42;;;;;;;3.35;2.70;;;;;;;;;;10366569;28;20362;-64
2023/02/07 04:57:42;;;;;;;3.10;2.35;;;;;;;;;;10367044;28;20281;-63
2023/02/07 05:02:43;;;;;;;3.03;2.55;;;;;;;;;;10366687;28;20497;-67
2023/02/07 05:07:44;;;;;;;3.38;2.60;;;;;;;;;;10366040;28;20122;-67
2023/02/07 05:12:45;;;;;;;2.70;2.50;;;;;;;;;;10366255;28;20026;-67
2023/02/07 05:17:45;;;;;;;3.75;2.65;;;;;;;;;;10365923;28;20029;-67
2023/02/07 05:22:46;;;;;;;3.72;2.70;;;;;;;;;;10365949;28;20030;-66
2023/02/07 05:27:46;;;;;;;6.95;2.60;;;;;;;;;;10365816;28;20588;-66
2023/02/07 05:33:02;;;;;;;3.17;2.40;;;;;;;;;;10365871;28;20461;-66
2023/02/07 05:38:06;;;;;;;3.20;2.78;;;;;;;;;;10365276;28;20046;-66
2023/02/07 05:43:08;;;;;;;2.33;2.13;;;;;;;;;;10367768;28;20061;-66
2023/02/07 05:48:08;;;;;;;3.15;2.40;;;;;;;;;;10372944;28;20029;-66
2023/02/07 05:53:10;;;;;;;4.07;2.92;;;;;;;;;;10372556;28;20432;-66
2023/02/07 05:58:10;;;;;;;3.20;2.60;;;;;;;;;;10372563;28;20042;-66
2023/02/07 06:03:11;;;;;;;2.63;2.33;;;;;;;;;;10369202;28;20504;-64
2023/02/07 06:08:12;;;;;;;3.72;2.60;;;;;;;;;;10371544;28;20042;-63
2023/02/07 06:13:12;;;;;;;3.08;2.75;;;;;;;;;;10368683;28;20033;-63
2023/02/07 06:18:13;;;;;;;5.35;2.63;;;;;;;;;;10371254;28;20033;-65
2023/02/07 06:23:13;;;;;;;3.33;2.70;;;;;;;;;;10363593;28;20046;-65
2023/02/07 06:28:14;;;;;;;7.93;3.13;;;;;;;;;;10360263;28;20080;-66
2023/02/07 06:33:14;;;;;;;4.38;3.13;;;;;;;;;;10366870;28;20042;-66
2023/02/07 06:38:16;;;;;;;5.78;3.55;;;;;;;;;;10363742;28;20077;-66
2023/02/07 06:43:17;;;;;;;8.05;3.75;;;;;;;;;;10367414;28;20049;-66
2023/02/07 06:48:17;;;;;;;6.72;4.63;;;;;;;;;;10366233;28;20142;-65
2023/02/07 06:53:18;;;;;;;8.45;5.15;;;;;;;;;;10364366;28;20041;-63
2023/02/07 06:58:19;;;;;;;17.48;5.30;;;;;;;;;;10354966;28;20471;-63
2023/02/07 07:03:25;;;;;;;8.00;4.78;;;;;;;;;;10370543;28;20492;-63
2023/02/07 07:08:26;;;;;;;12.23;4.82;;;;;;;;;;10369537;28;20053;-63
2023/02/07 07:13:27;;;;;;;7.78;4.85;;;;;;;;;;10368610;28;20033;-63
2023/02/07 07:18:28;;;;;;;8.30;4.95;;;;;;;;;;10369114;28;20493;-63
2023/02/07 07:23:28;;;;;;;7.28;5.20;;;;;;;;;;10369316;28;20037;-63
2023/02/07 07:28:29;;;;;;;7.63;5.00;;;;;;;;;;10368792;28;20034;-63
2023/02/07 07:33:30;;;;;;;13.90;4.95;;;;;;;;;;10368675;28;20030;-63
2023/02/07 07:38:31;;;;;;;7.78;4.60;;;;;;;;;;10368039;28;20068;-63
2023/02/07 07:43:32;;;;;;;8.45;5.03;;;;;;;;;;10368170;28;20030;-63
2023/02/07 07:48:33;;;;;;;8.70;4.60;;;;;;;;;;10368086;28;20438;-63
2023/02/07 07:53:33;;;;;;;7.43;4.78;;;;;;;;;;10368354;28;20396;-63
2023/02/07 07:58:34;;;;;;;9.43;4.57;;;;;;;;;;10368024;28;20527;-63
2023/02/07 08:03:35;;;;;;;8.02;4.43;;;;;;;;;;10367854;28;20018;-63
2023/02/07 08:08:35;;;;;;;9.40;4.47;;;;;;;;;;10366662;28;20022;-63
2023/02/07 08:13:37;;;;;;;7.93;4.88;;;;;;;;;;10368225;28;20025;-63
2023/02/07 08:18:37;;;;;;;7.28;4.82;;;;;;;;;;10367040;28;20026;-63
2023/02/07 08:23:38;;;;;;;8.27;4.50;;;;;;;;;;10367347;28;20025;-63
2023/02/07 08:28:39;;;;;;;7.07;4.35;;;;;;;;;;10366864;28;20643;-63
2023/02/07 08:33:40;;;;;;;5.97;4.10;;;;;;;;;;10366520;28;20265;-63
2023/02/07 08:38:40;;;;;;;6.32;4.53;;;;;;;;;;10366687;28;20053;-63
2023/02/07 08:43:41;;;;;;;6.70;4.55;;;;;;;;;;10366781;28;20022;-63
2023/02/07 08:48:41;;;;;;;7.45;4.55;;;;;;;;;;10366211;28;20026;-63
2023/02/07 08:53:42;;;;;;;5.82;4.32;;;;;;;;;;10366633;28;20025;-63
2023/02/07 08:58:44;;;;;;;8.55;4.30;;;;;;;;;;10366361;28;20042;-63
2023/02/07 09:03:47;;;;;;;4.90;4.10;;;;;;;;;;10366067;28;20324;-63
2023/02/07 09:08:49;;;;;;;5.70;4.10;;;;;;;;;;10366274;28;20517;-62
2023/02/07 09:13:49;;;;;;;8.38;4.38;;;;;;;;;;10366070;28;20029;-63
2023/02/07 09:18:50;;;;;;;7.25;4.30;;;;;;;;;;10369178;28;20489;-63
2023/02/07 09:23:53;;;;;;;5.75;4.10;;;;;;;;;;10374117;28;20022;-63
2023/02/07 09:28:53;;;;;;;7.82;4.70;;;;;;;;;;10373324;28;20033;-63
2023/02/07 09:33:54;;;;;;;4.90;4.10;;;;;;;;;;10373507;28;20432;-63
2023/02/07 09:38:55;;;;;;;6.03;4.18;;;;;;;;;;10373221;28;20409;-63
2023/02/07 09:44:04;;;;;;;5.35;4.25;;;;;;;;;;10373152;28;20022;-62
2023/02/07 09:49:22;;;;;;;9.73;4.10;;;;;;;;;;10373116;28;20068;-62
2023/02/07 09:54:29;;;;;;;5.35;4.05;;;;;;;;;;10371821;28;20022;-62
2023/02/07 09:59:35;;;;;;;7.13;4.22;;;;;;;;;;10371755;28;20049;-62
2023/02/07 10:04:38;;;;;;;5.80;3.92;;;;;;;;;;10371980;28;20378;-63
2023/02/07 10:09:43;;;;;;;6.38;4.43;;;;;;;;;;10370728;28;20223;-62
2023/02/07 10:14:55;;;;;;;4.95;4.03;;;;;;;;;;10370645;28;20473;-63
2023/02/07 10:20:11;;;;;;;5.88;4.00;;;;;;;;;;10371978;28;20474;-63
2023/02/07 10:25:43;;;;;;;5.05;4.00;;;;;;;;;;10371935;28;20108;-62
2023/02/07 10:30:52;;;;;;;6.30;3.83;;;;;;;;;;10366522;28;20042;-63
2023/02/07 10:35:53;;;;;;;7.30;4.10;;;;;;;;;;10396786;22;20050;-58
2023/02/07 10:41:03;;;;;;;5.82;3.95;;;;;;;;;;10411198;28;20025;-58
2023/02/07 10:46:12;;;;;;;6.72;3.97;;;;;;;;;;10400611;28;20048;-58
2023/02/07 10:51:34;;;;;;;5.20;4.13;;;;;;;;;;10408597;28;20056;-58
2023/02/07 10:56:40;;;;;;;7.82;3.92;;;;;;;;;;10363982;28;20026;-58
2023/02/07 11:01:54;;;;;;;6.65;3.60;;;;;;;;;;10406709;28;20033;-58
2023/02/07 11:07:04;;;;;;;5.07;4.00;;;;;;;;;;10403064;28;20413;-58
2023/02/07 11:12:16;;;;;;;5.05;3.78;;;;;;;;;;10392939;28;20112;-58
2023/02/07 11:17:20;;;;;;;5.82;4.07;;;;;;;;;;10390479;28;20036;-58
2023/02/07 11:22:23;;;;;;;4.65;3.45;;;;;;;;;;10383511;28;20473;-58
2023/02/07 11:27:24;;;;;;;4.10;3.33;;;;;;;;;;10378872;28;20160;-59
2023/02/07 11:32:27;;;;;;;4.53;3.40;;;;;;;;;;10374021;28;20544;-58
2023/02/07 11:37:34;;;;;;;4.50;3.60;;;;;;;;;;10384529;28;20044;-57
2023/02/07 11:42:34;;;;;;;4.82;3.58;;;;;;;;;;10400702;28;20033;-58
2023/02/07 11:47:37;;;;;;;3.42;3.13;;;;;;;;;;10396246;28;20473;-58
2023/02/07 11:52:39;;;;;;;5.85;3.50;;;;;;;;;;10379726;28;20040;-58
2023/02/07 11:57:39;;;;;;;6.80;3.80;;;;;;;;;;10372053;28;20033;-58
2023/02/07 12:02:41;;;;;;;4.13;3.67;;;;;;;;;;10391858;28;20160;-58
2023/02/07 12:07:51;;;;;;;4.55;4.07;;;;;;;;;;10391573;28;20022;-58
2023/02/07 12:13:06;;;;;;;4.82;3.80;;;;;;;;;;10401762;28;20022;-58
2023/02/07 12:18:37;;;;;;;3.72;3.00;;;;;;;;;;10399120;28;20467;-58
2023/02/07 12:24:12;;;;;;;4.22;3.40;;;;;;;;;;10406385;28;20025;-58
2023/02/07 12:29:58;;;;;;;5.50;3.65;;;;;;;;;;10390142;28;20022;-57
2023/02/07 12:35:34;;;;;;;6.18;4.07;;;;;;;;;;10372990;28;20103;-58
2023/02/07 12:40:50;;;;;;;4.78;3.50;;;;;;;;;;10360400;28;20049;-58
2023/02/07 12:46:02;;;;;;;5.78;3.88;;;;;;;;;;10397479;28;20592;-57
2023/02/07 12:51:47;;;;;;;5.82;3.65;;;;;;;;;;10375842;28;20092;-58
2023/02/07 12:57:07;;;;;;;4.15;3.35;;;;;;;;;;10370203;28;20045;-58
2023/02/07 13:02:51;;;;;;;5.70;3.80;;;;;;;;;;10397826;28;20467;-58
2023/02/07 13:08:25;;;;;;;4.68;3.80;;;;;;;;;;10394127;28;20065;-58
2023/02/07 13:13:37;;;;;;;5.47;3.85;;;;;;;;;;10373280;28;20033;-58
2023/02/07 13:19:01;;;;;;;5.20;3.47;;;;;;;;;;10377754;28;20030;-58
2023/02/07 13:24:05;;;;;;;4.00;3.33;;;;;;;;;;10373948;28;20064;-58
2023/02/07 13:29:15;;;;;;;5.10;3.60;;;;;;;;;;10382932;28;20022;-58
2023/02/07 13:35:11;;;;;;;4.57;3.40;;;;;;;;;;10370141;28;20076;-58
2023/02/07 13:40:27;;;;;;;5.00;3.40;;;;;;;;;;10379875;28;20034;-58
2023/02/07 13:45:53;;;;;;;5.03;3.40;;;;;;;;;;10388072;28;20097;-58
2023/02/07 13:51:01;;;;;;;4.28;3.28;;;;;;;;;;10387424;28;20025;-58
2023/02/07 13:56:08;;;;;;;6.38;3.38;;;;;;;;;;10381466;28;20409;-58
2023/02/07 14:01:16;;;;;;;4.78;3.47;;;;;;;;;;10385711;28;20026;-58
2023/02/07 14:06:26;;;;;;;3.45;3.03;;;;;;;;;;10383910;28;20096;-58
2023/02/07 14:11:40;;;;;;;4.97;3.28;;;;;;;;;;10405328;28;20057;-58
2023/02/07 14:16:56;;;;;;;3.92;3.38;;;;;;;;;;10384396;28;20026;-57
2023/02/07 14:22:20;;;;;;;4.22;3.40;;;;;;;;;;10397580;28;20509;-58
2023/02/07 14:27:41;;;;;;;3.55;2.95;;;;;;;;;;10392288;28;20021;-59
2023/02/07 14:33:10;;;;;;;4.15;3.25;;;;;;;;;;10378558;28;20025;-58
2023/02/07 14:38:27;;;;;;;;;;;;;;;;;;10409720;28;20269;-58
2023/02/07 14:43:40;;;;;;;4.78;3.38;;;;;;;;;;10389382;28;19921;-58
2023/02/07 14:48:56;;;;;;;5.57;3.83;;;;;;;;;;10393738;28;20017;-58
2023/02/07 14:54:06;;;;;;;5.57;3.67;;;;;;;;;;10397054;28;20017;-58
2023/02/07 14:59:12;;;;;;;6.10;3.97;;;;;;;;;;10409334;28;20108;-58
2023/02/07 15:04:13;;;;;;;6.00;3.88;;;;;;;;;;10404610;28;20389;-58
2023/02/07 15:09:26;;;;;;;6.85;3.83;;;;;;;;;;10397666;28;20025;-58
2023/02/07 15:14:32;;;;;;;4.90;3.70;;;;;;;;;;10388584;28;20029;-58
2023/02/07 15:19:37;;;;;;;5.13;3.45;;;;;;;;;;10379823;28;20478;-58
2023/02/07 15:24:40;;;;;;;6.40;3.58;;;;;;;;;;10381581;28;20029;-58
2023/02/07 15:29:40;;;;;;;5.32;4.07;;;;;;;;;;10376120;28;20060;-58
2023/02/07 15:34:43;;;;;;;4.80;3.63;;;;;;;;;;10378389;28;20033;-58
2023/02/07 15:39:45;;;;;;;4.57;3.72;;;;;;;;;;10404500;28;20089;-58
2023/02/07 15:44:56;;;;;;;6.32;4.07;;;;;;;;;;10396546;28;20152;-58
2023/02/07 15:50:07;;;;;;;6.10;3.85;;;;;;;;;;10369696;28;20036;-58
2023/02/07 15:55:45;;;;;;;4.68;3.30;;;;;;;;;;10369610;28;20100;-58
2023/02/07 16:00:46;;;;;;;4.25;3.75;;;;;;;;;;10352714;28;20492;-58
2023/02/07 16:05:47;;;;;;;6.88;3.47;;;;;;;;;;10369508;28;20034;-58
2023/02/07 16:10:48;;;;;;;5.50;3.67;;;;;;;;;;10367925;28;20465;-58
2023/02/07 16:15:56;;;;;;;4.15;3.50;;;;;;;;;;10371677;28;20022;-58
2023/02/07 16:20:57;;;;;;;6.60;3.47;;;;;;;;;;10374654;28;20030;-58
2023/02/07 16:25:59;;;;;;;6.35;3.72;;;;;;;;;;10367904;28;20481;-59
2023/02/07 16:31:00;;;;;;;12.70;3.88;;;;;;;;;;10367219;28;20025;-58
2023/02/07 16:36:01;;;;;;;7.93;3.95;;;;;;;;;;10381817;28;20049;-61
2023/02/07 16:41:04;;;;;;;6.38;3.63;;;;;;;;;;10360925;28;20022;-58
2023/02/07 16:46:05;;;;;;;6.80;3.65;;;;;;;;;;10378931;28;20394;-58
2023/02/07 16:51:06;;;;;;;6.68;3.83;;;;;;;;;;10396477;28;20025;-58
2023/02/07 16:56:11;;;;;;;5.25;3.63;;;;;;;;;;10382241;28;20083;-58
2023/02/07 17:01:18;;;;;;;5.40;3.50;;;;;;;;;;10390056;28;20391;-58
2023/02/07 17:06:20;;;;;;;6.05;4.40;;;;;;;;;;10403122;28;20109;-58
2023/02/07 17:11:26;;;;;;;6.28;3.95;;;;;;;;;;10394429;28;20030;-59
2023/02/07 17:16:27;;;;;;;5.40;4.28;;;;;;;;;;10397177;28;20492;-58
2023/02/07 17:21:27;;;;;;;5.38;4.03;;;;;;;;;;10382021;28;20026;-59
2023/02/07 17:26:32;;;;;;;10.25;4.30;;;;;;;;;;10379107;28;20038;-59
2023/02/07 17:31:33;;;;;;;7.72;4.70;;;;;;;;;;10368057;28;20032;-60
2023/02/07 17:36:34;;;;;;;9.25;4.47;;;;;;;;;;10365731;28;20042;-59
2023/02/07 17:41:35;;;;;;;4.50;4.07;;;;;;;;;;10394817;28;20056;-60
2023/02/07 17:46:35;;;;;;;6.55;4.40;;;;;;;;;;10365707;28;20435;-59
2023/02/07 17:51:36;;;;;;;6.00;3.80;;;;;;;;;;10380027;28;20021;-59
2023/02/07 17:56:37;;;;;;;8.23;5.15;;;;;;;;;;10365955;28;20038;-59
2023/02/07 18:01:37;;;;;;;6.97;4.40;;;;;;;;;;10367228;28;20030;-59
2023/02/07 18:06:38;;;;;;;5.65;4.20;;;;;;;;;;10368058;28;20033;-64
2023/02/07 18:11:39;;;;;;;6.50;4.22;;;;;;;;;;10371593;28;20033;-62
2023/02/07 18:16:40;;;;;;;6.88;4.68;;;;;;;;;;10374162;28;20091;-64
2023/02/07 18:21:41;;;;;;;9.20;4.13;;;;;;;;;;10374162;28;20033;-62
2023/02/07 18:26:41;;;;;;;8.18;4.93;;;;;;;;;;10372698;28;20026;-58
2023/02/07 18:31:42;;;;;;;7.40;5.05;;;;;;;;;;10368922;28;20026;-58
2023/02/07 18:36:43;;;;;;;7.88;4.57;;;;;;;;;;10379298;28;20046;-58
2023/02/07 18:41:44;;;;;;;8.05;4.13;;;;;;;;;;10376291;28;20033;-58
2023/02/07 18:46:44;;;;;;;6.30;4.35;;;;;;;;;;10366601;28;20038;-63
2023/02/07 18:51:45;;;;;;;7.43;4.47;;;;;;;;;;10356437;28;20041;-59
2023/02/07 18:56:56;;;;;;;8.73;4.63;;;;;;;;;;10363021;28;20509;-64
2023/02/07 19:01:57;;;;;;;5.63;4.47;;;;;;;;;;10342731;28;20076;-59
2023/02/07 19:07:03;;;;;;;5.97;4.32;;;;;;;;;;10361843;28;20037;-59
2023/02/07 19:12:11;;;;;;;8.07;4.30;;;;;;;;;;10349407;28;20505;-60
2023/02/07 19:17:12;;;;;;;5.30;4.07;;;;;;;;;;10373177;28;20411;-59
2023/02/07 19:22:13;;;;;;;8.82;4.20;;;;;;;;;;10360428;28;20022;-59
2023/02/07 19:27:13;;;;;;;7.65;4.97;;;;;;;;;;10381124;28;20038;-58
2023/02/07 19:32:14;;;;;;;6.97;4.03;;;;;;;;;;10362292;28;20038;-58
2023/02/07 19:37:14;;;;;;;24.25;5.78;;;;;;;;;;10364109;28;20046;-58
2023/02/07 19:42:15;;;;;;;13.52;5.63;;;;;;;;;;10368073;28;20026;-61
2023/02/07 19:47:16;;;;;;;12.23;5.50;;;;;;;;;;10382649;28;20473;-58
2023/02/07 19:52:18;;;;;;;9.63;5.22;;;;;;;;;;10383345;28;20030;-58
2023/02/07 19:57:19;;;;;;;20.08;5.55;;;;;;;;;;10387395;28;20021;-58
2023/02/07 20:02:20;;;;;;;20.63;6.00;;;;;;;;;;10369889;28;20497;-57
2023/02/07 20:07:21;;;;;;;16.13;6.60;;;;;;;;;;10368935;28;20474;-59
2023/02/07 20:12:21;;;;;;;16.45;7.05;;;;;;;;;;10352744;28;20029;-60
2023/02/07 20:17:22;;;;;;;16.25;7.68;;;;;;;;;;10362856;28;20045;-59
2023/02/07 20:22:23;;;;;;;15.80;7.80;;;;;;;;;;10352431;28;20046;-64
2023/02/07 20:27:23;;;;;;;14.98;7.30;;;;;;;;;;10350251;28;20041;-62
2023/02/07 20:32:24;;;;;;;26.65;8.38;;;;;;;;;;10340656;28;20464;-59
2023/02/07 20:37:26;;;;;;;17.38;8.05;;;;;;;;;;10346734;28;20112;-63
2023/02/07 20:42:27;;;;;;;18.38;7.90;;;;;;;;;;10360067;28;20133;-59
2023/02/07 20:47:28;;;;;;;19.65;8.40;;;;;;;;;;10357714;28;20034;-63
2023/02/07 20:52:28;;;;;;;17.55;8.27;;;;;;;;;;10359931;28;20041;-60
2023/02/07 20:57:29;;;;;;;14.13;8.02;;;;;;;;;;10357786;28;20029;-58
2023/02/07 21:02:29;;;;;;;14.43;8.30;;;;;;;;;;10363278;28;20034;-58
2023/02/07 21:07:30;;;;;;;14.30;8.38;;;;;;;;;;10360582;28;20033;-58
2023/02/07 21:12:31;;;;;;;14.32;8.60;;;;;;;;;;10358925;28;20096;-59
2023/02/07 21:17:31;;;;;;;16.13;8.05;;;;;;;;;;10356401;28;20041;-59
2023/02/07 21:22:32;;;;;;;14.00;8.55;;;;;;;;;;10368971;28;20492;-59
2023/02/07 21:27:32;;;;;;;15.50;8.77;;;;;;;;;;10380677;28;20474;-58
2023/02/07 21:32:33;;;;;;;17.40;9.40;;;;;;;;;;10346390;28;20524;-58
2023/02/07 21:37:33;;;;;;;13.60;9.13;;;;;;;;;;10355542;28;20038;-58
2023/02/07 21:42:34;;;;;;;15.35;8.95;;;;;;;;;;10363036;28;20040;-59
2023/02/07 21:47:35;;;;;;;15.13;9.60;;;;;;;;;;10366839;28;20052;-59
2023/02/07 21:52:35;;;;;;;16.27;10.27;;;;;;;;;;10378649;28;20485;-58
2023/02/07 21:57:36;;;;;;;15.65;9.77;;;;;;;;;;10364852;28;20478;-58
2023/02/07 22:02:37;;;;;;;22.08;10.18;;;;;;;;;;10361590;28;20175;-60
2023/02/07 22:07:38;;;;;;;16.67;9.25;;;;;;;;;;10363191;28;20069;-59
2023/02/07 22:12:38;;;;;;;18.35;9.43;;;;;;;;;;10363844;28;20080;-58
2023/02/07 22:17:39;;;;;;;17.00;9.40;;;;;;;;;;10371993;28;20037;-59
2023/02/07 22:22:39;;;;;;;16.80;9.25;;;;;;;;;;10381249;28;20022;-59
2023/02/07 22:27:40;;;;;;;22.63;8.93;;;;;;;;;;10365431;28;20021;-60
2023/02/07 22:32:40;;;;;;;15.63;9.30;;;;;;;;;;10369226;28;20033;-61
2023/02/07 22:37:41;;;;;;;18.50;9.40;;;;;;;;;;10374621;28;20045;-60
2023/02/07 22:42:41;;;;;;;18.35;9.18;;;;;;;;;;10371093;28;20544;-58
2023/02/07 22:47:42;;;;;;;13.13;8.95;;;;;;;;;;10396221;28;20501;-58
2023/02/07 22:52:44;;;;;;;15.60;8.23;;;;;;;;;;10397725;28;20037;-58
2023/02/07 22:57:49;;;;;;;16.08;9.32;;;;;;;;;;10395049;28;20050;-58
2023/02/07 23:02:49;;;;;;;14.65;8.68;;;;;;;;;;10396220;28;20107;-58
2023/02/07 23:07:50;;;;;;;15.32;8.00;;;;;;;;;;10387582;28;20045;-58
2023/02/07 23:12:51;;;;;;;11.55;7.85;;;;;;;;;;10391832;28;20026;-57
2023/02/07 23:17:51;;;;;;;13.07;8.20;;;;;;;;;;10406329;28;20401;-61
2023/02/07 23:22:52;;;;;;;12.20;8.07;;;;;;;;;;10399657;28;20608;-59
2023/02/07 23:27:53;;;;;;;10.68;7.93;;;;;;;;;;10397484;28;20032;-59
2023/02/07 23:32:53;;;;;;;11.70;7.45;;;;;;;;;;10408009;28;20385;-59
2023/02/07 23:37:54;;;;;;;10.15;7.40;;;;;;;;;;10407326;28;20375;-59
2023/02/07 23:42:54;;;;;;;13.55;7.70;;;;;;;;;;10397783;28;20029;-59
2023/02/07 23:47:55;;;;;;;10.85;7.63;;;;;;;;;;10383646;28;20103;-59
2023/02/07 23:52:56;;;;;;;10.98;7.05;;;;;;;;;;10373444;28;20076;-59
2023/02/07 23:57:56;;;;;;;13.18;7.60;;;;;;;;;;10394815;28;20428;-60
